Main page
METAR-TAF:

METAR-TAF

Airports :

Cairo, Egypt

Cairo International Airport

latitude: 30-08N, longitude: 031-24E, elevation: 64 m

Current weather observation

The report was made 56 minutes ago, at 11:00 UTC
Wind 11 kt from the North/Northwest
Temperature 36°C
Humidity 25%
Pressure 1010 hPa
Visibility 10 km or more
Few clouds at a height of 2500 ft

METAR: HECA 211100Z 34011KT 9999 FEW025 36/13 Q1010

Time: 13:56 (11:56 UTC)

Forecast

The report was made 56 minutes ago, at 11:00 UTC
Forecast valid from 21 at 12 UTC to 22 at 18 UTC
Wind 11 kt from the North
Visibility 10 km or more
no clouds below 1500 m and no cumulonimbus

TAF: HECA 211100Z 2112/2218 35011KT CAVOK

Weather observations and forecasts of more than 4000 airports (METAR and TAF reports).

The available stations are represented by yellow and red dots on the map.

Hover mouse over dot to see the name of the station.

Then click to see weather observations and forecasts.

To change the map : click on the green buttons with a black cross to zoom in, on the green button with a dash to zoom out, or on the green arrows for adjacent maps.


METAR-TAF: